sensor_id;sensor_type;location;lat;lon;timestamp;pressure;altitude;pressure_sealevel;temperature;humidity
80927;BME280;70385;44.538;18.532;2024-02-21T00:00:33;100351.38;;;5.33;100.00
80927;BME280;70385;44.538;18.532;2024-02-21T00:02:58;100358.28;;;5.36;100.00
80927;BME280;70385;44.538;18.532;2024-02-21T00:05:27;100335.75;;;5.39;100.00
80927;BME280;70385;44.538;18.532;2024-02-21T00:07:53;100330.59;;;5.36;100.00
80927;BME280;70385;44.538;18.532;2024-02-21T00:10:19;100341.81;;;5.41;100.00
80927;BME280;70385;44.538;18.532;2024-02-21T00:12:45;100328.91;;;5.32;100.00
80927;BME280;70385;44.538;18.532;2024-02-21T00:15:11;100326.28;;;5.34;100.00
80927;BME280;70385;44.538;18.532;2024-02-21T00:17:37;100324.56;;;5.34;100.00
80927;BME280;70385;44.538;18.532;2024-02-21T00:20:08;100320.28;;;5.30;100.00
80927;BME280;70385;44.538;18.532;2024-02-21T00:42:52;100333.22;;;5.32;100.00
80927;BME280;70385;44.538;18.532;2024-02-21T00:45:18;100325.44;;;5.32;100.00
80927;BME280;70385;44.538;18.532;2024-02-21T00:47:48;100324.59;;;5.31;100.00
80927;BME280;70385;44.538;18.532;2024-02-21T00:50:15;100328.09;;;5.27;100.00
80927;BME280;70385;44.538;18.532;2024-02-21T00:52:41;100334.09;;;5.32;100.00
80927;BME280;70385;44.538;18.532;2024-02-21T00:55:08;100335.78;;;5.41;100.00
80927;BME280;70385;44.538;18.532;2024-02-21T00:57:34;100333.16;;;5.42;100.00
80927;BME280;70385;44.538;18.532;2024-02-21T01:00:02;100329.72;;;5.36;100.00
80927;BME280;70385;44.538;18.532;2024-02-21T01:02:28;100322.91;;;5.27;100.00
80927;BME280;70385;44.538;18.532;2024-02-21T01:04:59;100322.03;;;5.27;100.00
80927;BME280;70385;44.538;18.532;2024-02-21T01:07:25;100323.81;;;5.22;100.00
80927;BME280;70385;44.538;18.532;2024-02-21T01:09:50;100326.44;;;5.15;100.00
80927;BME280;70385;44.538;18.532;2024-02-21T01:12:19;100329.00;;;5.17;100.00
80927;BME280;70385;44.538;18.532;2024-02-21T01:14:45;100320.44;;;5.10;100.00
80927;BME280;70385;44.538;18.532;2024-02-21T01:17:15;100303.09;;;5.15;100.00
80927;BME280;70385;44.538;18.532;2024-02-21T01:19:46;100304.84;;;5.13;100.00
80927;BME280;70385;44.538;18.532;2024-02-21T01:22:12;100308.31;;;5.12;100.00
80927;BME280;70385;44.538;18.532;2024-02-21T01:24:38;100312.63;;;5.13;100.00
80927;BME280;70385;44.538;18.532;2024-02-21T01:27:04;100311.75;;;5.13;100.00
80927;BME280;70385;44.538;18.532;2024-02-21T01:29:30;100303.13;;;5.12;100.00
80927;BME280;70385;44.538;18.532;2024-02-21T01:31:58;100300.53;;;5.12;100.00
80927;BME280;70385;44.538;18.532;2024-02-21T01:34:24;100306.56;;;5.14;100.00
80927;BME280;70385;44.538;18.532;2024-02-21T01:36:50;100314.31;;;5.17;100.00
80927;BME280;70385;44.538;18.532;2024-02-21T01:39:15;100303.13;;;5.12;100.00
80927;BME280;70385;44.538;18.532;2024-02-21T01:41:43;100303.09;;;5.15;100.00
80927;BME280;70385;44.538;18.532;2024-02-21T01:44:08;100307.44;;;5.12;100.00
80927;BME280;70385;44.538;18.532;2024-02-21T01:46:34;100312.59;;;5.15;100.00
80927;BME280;70385;44.538;18.532;2024-02-21T01:49:01;100310.06;;;5.07;100.00
80927;BME280;70385;44.538;18.532;2024-02-21T01:51:27;100315.28;;;5.04;100.00
80927;BME280;70385;44.538;18.532;2024-02-21T01:53:53;100310.97;;;5.03;100.00
80927;BME280;70385;44.538;18.532;2024-02-21T01:56:21;100305.75;;;5.08;100.00
80927;BME280;70385;44.538;18.532;2024-02-21T01:58:48;100297.13;;;5.04;100.00
80927;BME280;70385;44.538;18.532;2024-02-21T02:01:14;100303.13;;;5.09;100.00
80927;BME280;70385;44.538;18.532;2024-02-21T02:04:05;100301.38;;;5.14;100.00
80927;BME280;70385;44.538;18.532;2024-02-21T02:06:39;100295.38;;;5.08;100.00
80927;BME280;70385;44.538;18.532;2024-02-21T02:16:46;100301.47;;;5.02;100.00
80927;BME280;70385;44.538;18.532;2024-02-21T02:19:16;100286.78;;;4.98;100.00
80927;BME280;70385;44.538;18.532;2024-02-21T02:22:10;100306.66;;;4.99;100.00
80927;BME280;70385;44.538;18.532;2024-02-21T02:24:39;100298.88;;;4.99;100.00
80927;BME280;70385;44.538;18.532;2024-02-21T02:27:05;100307.53;;;5.03;100.00
80927;BME280;70385;44.538;18.532;2024-02-21T02:29:33;100308.44;;;4.94;100.00
80927;BME280;70385;44.538;18.532;2024-02-21T02:36:07;100311.94;;;4.87;100.00
80927;BME280;70385;44.538;18.532;2024-02-21T02:38:33;100313.66;;;4.88;100.00
80927;BME280;70385;44.538;18.532;2024-02-21T02:40:59;100312.75;;;4.94;100.00
80927;BME280;70385;44.538;18.532;2024-02-21T02:43:25;100321.44;;;4.90;100.00
80927;BME280;70385;44.538;18.532;2024-02-21T02:45:50;100327.50;;;4.87;100.00
80927;BME280;70385;44.538;18.532;2024-02-21T02:48:17;100330.13;;;4.84;100.00
80927;BME280;70385;44.538;18.532;2024-02-21T02:50:45;100330.97;;;4.86;100.00
80927;BME280;70385;44.538;18.532;2024-02-21T02:53:11;100327.53;;;4.84;100.00
80927;BME280;70385;44.538;18.532;2024-02-21T02:55:39;100329.25;;;4.83;100.00
80927;BME280;70385;44.538;18.532;2024-02-21T02:58:06;100319.78;;;4.76;100.00
80927;BME280;70385;44.538;18.532;2024-02-21T03:00:31;100349.13;;;4.80;100.00
80927;BME280;70385;44.538;18.532;2024-02-21T03:03:02;100338.78;;;4.83;100.00
80927;BME280;70385;44.538;18.532;2024-02-21T03:05:34;100337.03;;;4.85;100.00
80927;BME280;70385;44.538;18.532;2024-02-21T03:07:59;100335.31;;;4.84;100.00
80927;BME280;70385;44.538;18.532;2024-02-21T03:10:25;100327.53;;;4.82;100.00
80927;BME280;70385;44.538;18.532;2024-02-21T03:12:52;100330.13;;;4.82;100.00
80927;BME280;70385;44.538;18.532;2024-02-21T03:18:48;100356.97;;;4.71;100.00
80927;BME280;70385;44.538;18.532;2024-02-21T03:21:14;100341.44;;;4.62;100.00
80927;BME280;70385;44.538;18.532;2024-02-21T03:23:39;100335.44;;;4.56;100.00
80927;BME280;70385;44.538;18.532;2024-02-21T03:26:06;100343.22;;;4.56;100.00
80927;BME280;70385;44.538;18.532;2024-02-21T03:28:32;100347.53;;;4.54;100.00
80927;BME280;70385;44.538;18.532;2024-02-21T03:34:54;100358.78;;;4.53;100.00
80927;BME280;70385;44.538;18.532;2024-02-21T03:41:11;100358.78;;;4.53;100.00
80927;BME280;70385;44.538;18.532;2024-02-21T03:43:39;100353.63;;;4.50;100.00
80927;BME280;70385;44.538;18.532;2024-02-21T03:46:06;100366.59;;;4.49;100.00
80927;BME280;70385;44.538;18.532;2024-02-21T03:48:32;100360.53;;;4.48;100.00
80927;BME280;70385;44.538;18.532;2024-02-21T03:50:58;100367.47;;;4.46;100.00
80927;BME280;70385;44.538;18.532;2024-02-21T03:53:24;100365.72;;;4.48;100.00
80927;BME280;70385;44.538;18.532;2024-02-21T03:55:50;100363.97;;;4.50;100.00
80927;BME280;70385;44.538;18.532;2024-02-21T03:58:18;100375.22;;;4.49;100.00
80927;BME280;70385;44.538;18.532;2024-02-21T04:09:20;100370.91;;;4.41;100.00
80927;BME280;70385;44.538;18.532;2024-02-21T04:11:46;100364.88;;;4.37;100.00
80927;BME280;70385;44.538;18.532;2024-02-21T04:14:12;100361.44;;;4.37;100.00
80927;BME280;70385;44.538;18.532;2024-02-21T04:16:38;100358.84;;;4.34;100.00
80927;BME280;70385;44.538;18.532;2024-02-21T04:27:06;100358.03;;;4.29;100.00
80927;BME280;70385;44.538;18.532;2024-02-21T04:29:31;100367.53;;;4.28;100.00
80927;BME280;70385;44.538;18.532;2024-02-21T04:31:57;100364.06;;;4.23;100.00
80927;BME280;70385;44.538;18.532;2024-02-21T04:34:24;100367.53;;;4.22;100.00
80927;BME280;70385;44.538;18.532;2024-02-21T04:36:51;100377.03;;;4.24;100.00
80927;BME280;70385;44.538;18.532;2024-02-21T04:39:17;100374.44;;;4.29;100.00
80927;BME280;70385;44.538;18.532;2024-02-21T04:41:42;100358.00;;;4.24;100.00
80927;BME280;70385;44.538;18.532;2024-02-21T04:44:08;100368.41;;;4.25;100.00
80927;BME280;70385;44.538;18.532;2024-02-21T04:46:34;100368.41;;;4.25;100.00
80927;BME280;70385;44.538;18.532;2024-02-21T04:49:02;100374.44;;;4.29;100.00
80927;BME280;70385;44.538;18.532;2024-02-21T04:51:30;100386.50;;;4.30;100.00
80927;BME280;70385;44.538;18.532;2024-02-21T04:53:55;100386.53;;;4.27;100.00
80927;BME280;70385;44.538;18.532;2024-02-21T04:56:24;100377.91;;;4.25;100.00
80927;BME280;70385;44.538;18.532;2024-02-21T04:58:50;100381.34;;;4.30;100.00
80927;BME280;70385;44.538;18.532;2024-02-21T05:01:18;100379.59;;;4.29;100.00
80927;BME280;70385;44.538;18.532;2024-02-21T05:03:44;100389.09;;;4.30;100.00
80927;BME280;70385;44.538;18.532;2024-02-21T05:06:12;100383.06;;;4.28;100.00
80927;BME280;70385;44.538;18.532;2024-02-21T05:08:38;100395.16;;;4.26;100.00
80927;BME280;70385;44.538;18.532;2024-02-21T05:11:04;100383.06;;;4.23;100.00
80927;BME280;70385;44.538;18.532;2024-02-21T05:13:31;100388.25;;;4.25;100.00
80927;BME280;70385;44.538;18.532;2024-02-21T05:15:56;100391.69;;;4.30;100.00
80927;BME280;70385;44.538;18.532;2024-02-21T05:18:22;100388.25;;;4.28;100.00
80927;BME280;70385;44.538;18.532;2024-02-21T05:25:21;100390.78;;;4.45;100.00
80927;BME280;70385;44.538;18.532;2024-02-21T05:36:11;100399.38;;;4.57;100.00
80927;BME280;70385;44.538;18.532;2024-02-21T05:38:37;100401.94;;;4.59;100.00
80927;BME280;70385;44.538;18.532;2024-02-21T05:41:04;100400.19;;;4.63;100.00
80927;BME280;70385;44.538;18.532;2024-02-21T05:43:31;100401.09;;;4.58;100.00
80927;BME280;70385;44.538;18.532;2024-02-21T05:45:57;100398.50;;;4.65;100.00
80927;BME280;70385;44.538;18.532;2024-02-21T05:48:24;100402.81;;;4.66;100.00
80927;BME280;70385;44.538;18.532;2024-02-21T05:54:58;100408.00;;;4.66;100.00
80927;BME280;70385;44.538;18.532;2024-02-21T05:57:26;100388.09;;;4.62;100.00
80927;BME280;70385;44.538;18.532;2024-02-21T05:59:59;100401.06;;;4.68;100.00
80927;BME280;70385;44.538;18.532;2024-02-21T06:02:39;100401.06;;;4.71;100.00
80927;BME280;70385;44.538;18.532;2024-02-21T06:09:11;100407.94;;;4.73;100.00
80927;BME280;70385;44.538;18.532;2024-02-21T06:11:44;100395.03;;;4.67;100.00
80927;BME280;70385;44.538;18.532;2024-02-21T06:14:14;100410.53;;;4.72;100.00
80927;BME280;70385;44.538;18.532;2024-02-21T06:16:40;100404.53;;;4.67;100.00
80927;BME280;70385;44.538;18.532;2024-02-21T06:19:06;100408.84;;;4.68;100.00
80927;BME280;70385;44.538;18.532;2024-02-21T06:25:27;100419.16;;;4.77;100.00
80927;BME280;70385;44.538;18.532;2024-02-21T06:35:22;100420.00;;;4.80;100.00
80927;BME280;70385;44.538;18.532;2024-02-21T06:37:53;100422.59;;;4.85;100.00
80927;BME280;70385;44.538;18.532;2024-02-21T06:40:23;100425.16;;;4.90;100.00
80927;BME280;70385;44.538;18.532;2024-02-21T06:49:56;100432.03;;;4.97;100.00
80927;BME280;70385;44.538;18.532;2024-02-21T06:52:23;100443.25;;;5.00;100.00
80927;BME280;70385;44.538;18.532;2024-02-21T06:55:14;100452.75;;;5.01;100.00
80927;BME280;70385;44.538;18.532;2024-02-21T06:57:49;100449.28;;;5.07;100.00
80927;BME280;70385;44.538;18.532;2024-02-21T07:04:26;100455.38;;;4.95;100.00
80927;BME280;70385;44.538;18.532;2024-02-21T07:06:56;100453.66;;;4.94;100.00
80927;BME280;70385;44.538;18.532;2024-02-21T07:09:30;100458.81;;;4.99;100.00
80927;BME280;70385;44.538;18.532;2024-02-21T07:11:58;100458.81;;;4.99;100.00
80927;BME280;70385;44.538;18.532;2024-02-21T07:14:35;100465.72;;;5.04;100.00
80927;BME280;70385;44.538;18.532;2024-02-21T07:17:38;100463.16;;;4.98;100.00
80927;BME280;70385;44.538;18.532;2024-02-21T07:20:04;100465.69;;;5.10;100.00
80927;BME280;70385;44.538;18.532;2024-02-21T07:25:59;100459.56;;;5.28;100.00
80927;BME280;70385;44.538;18.532;2024-02-21T07:28:27;100468.19;;;5.30;100.00
80927;BME280;70385;44.538;18.532;2024-02-21T07:30:55;100463.03;;;5.24;100.00
80927;BME280;70385;44.538;18.532;2024-02-21T07:33:48;100468.13;;;5.38;100.00
80927;BME280;70385;44.538;18.532;2024-02-21T07:36:28;100467.28;;;5.36;100.00
80927;BME280;70385;44.538;18.532;2024-02-21T07:38:55;100456.91;;;5.33;100.00
80927;BME280;70385;44.538;18.532;2024-02-21T07:41:21;100464.66;;;5.45;100.00
80927;BME280;70385;44.538;18.532;2024-02-21T07:44:02;100457.66;;;5.52;100.00
80927;BME280;70385;44.538;18.532;2024-02-21T07:46:32;100458.41;;;5.70;100.00
80927;BME280;70385;44.538;18.532;2024-02-21T07:56:42;100453.75;;;6.12;100.00
80927;BME280;70385;44.538;18.532;2024-02-21T07:59:12;100452.66;;;6.34;100.00
80927;BME280;70385;44.538;18.532;2024-02-21T08:08:38;100453.47;;;6.43;100.00
80927;BME280;70385;44.538;18.532;2024-02-21T08:11:05;100453.34;;;6.56;100.00
80927;BME280;70385;44.538;18.532;2024-02-21T08:13:39;100462.19;;;6.35;100.00
80927;BME280;70385;44.538;18.532;2024-02-21T08:19:06;100454.81;;;6.77;100.00
80927;BME280;70385;44.538;18.532;2024-02-21T08:21:43;100466.28;;;6.61;100.00
80927;BME280;70385;44.538;18.532;2024-02-21T08:24:09;100471.00;;;7.00;100.00
80927;BME280;70385;44.538;18.532;2024-02-21T08:26:56;100461.03;;;7.31;100.00
80927;BME280;70385;44.538;18.532;2024-02-21T08:29:35;100457.84;;;7.14;100.00
80927;BME280;70385;44.538;18.532;2024-02-21T08:32:06;100443.78;;;7.26;100.00
80927;BME280;70385;44.538;18.532;2024-02-21T08:34:40;100458.16;;;7.51;100.00
80927;BME280;70385;44.538;18.532;2024-02-21T08:37:17;100439.25;;;7.40;100.00
80927;BME280;70385;44.538;18.532;2024-02-21T08:39:58;100439.28;;;7.37;100.00
80927;BME280;70385;44.538;18.532;2024-02-21T08:42:35;100439.09;;;7.49;100.00
80927;BME280;70385;44.538;18.532;2024-02-21T08:45:06;100448.63;;;7.50;100.00
80927;BME280;70385;44.538;18.532;2024-02-21T08:47:33;100447.16;;;7.34;100.00
80927;BME280;70385;44.538;18.532;2024-02-21T08:50:03;100441.25;;;7.78;100.00
80927;BME280;70385;44.538;18.532;2024-02-21T08:52:38;100424.59;;;7.87;100.00
80927;BME280;70385;44.538;18.532;2024-02-21T08:55:09;100431.41;;;7.96;100.00
80927;BME280;70385;44.538;18.532;2024-02-21T08:57:43;100423.03;;;8.26;100.00
80927;BME280;70385;44.538;18.532;2024-02-21T09:00:15;100414.88;;;8.46;100.00
80927;BME280;70385;44.538;18.532;2024-02-21T09:02:43;100412.25;;;8.46;100.00
80927;BME280;70385;44.538;18.532;2024-02-21T09:05:11;100412.63;;;8.25;100.00
80927;BME280;70385;44.538;18.532;2024-02-21T09:07:37;100421.59;;;8.11;100.00
80927;BME280;70385;44.538;18.532;2024-02-21T09:14:17;100415.19;;;8.74;100.00
80927;BME280;70385;44.538;18.532;2024-02-21T09:16:47;100421.66;;;8.56;100.00
80927;BME280;70385;44.538;18.532;2024-02-21T09:19:13;100420.75;;;8.99;100.00
80927;BME280;70385;44.538;18.532;2024-02-21T09:21:52;100427.44;;;9.12;100.00
80927;BME280;70385;44.538;18.532;2024-02-21T09:24:22;100422.84;;;9.23;100.00
80927;BME280;70385;44.538;18.532;2024-02-21T09:26:54;100407.16;;;9.23;100.00
80927;BME280;70385;44.538;18.532;2024-02-21T09:29:23;100422.09;;;9.55;100.00
80927;BME280;70385;44.538;18.532;2024-02-21T09:32:01;100414.06;;;9.63;100.00
80927;BME280;70385;44.538;18.532;2024-02-21T09:34:30;100408.34;;;10.17;100.00
80927;BME280;70385;44.538;18.532;2024-02-21T09:41:14;100412.69;;;10.18;100.00
80927;BME280;70385;44.538;18.532;2024-02-21T09:43:46;100411.75;;;9.88;100.00
80927;BME280;70385;44.538;18.532;2024-02-21T09:46:55;100406.09;;;10.04;100.00
80927;BME280;70385;44.538;18.532;2024-02-21T09:49:34;100407.81;;;10.38;100.00
80927;BME280;70385;44.538;18.532;2024-02-21T09:52:10;100411.59;;;10.28;100.00
80927;BME280;70385;44.538;18.532;2024-02-21T09:54:41;100414.34;;;10.22;100.00
80927;BME280;70385;44.538;18.532;2024-02-21T09:57:10;100408.75;;;10.03;100.00
80927;BME280;70385;44.538;18.532;2024-02-21T09:59:37;100403.84;;;10.25;100.00
80927;BME280;70385;44.538;18.532;2024-02-21T10:02:03;100395.81;;;10.31;100.00
80927;BME280;70385;44.538;18.532;2024-02-21T10:04:30;100398.81;;;10.48;100.00
80927;BME280;70385;44.538;18.532;2024-02-21T10:06:57;100396.47;;;10.70;100.00
80927;BME280;70385;44.538;18.532;2024-02-21T10:12:56;100391.69;;;10.53;100.00
80927;BME280;70385;44.538;18.532;2024-02-21T10:15:24;100393.75;;;11.03;100.00
80927;BME280;70385;44.538;18.532;2024-02-21T10:18:01;100381.16;;;10.86;94.65
80927;BME280;70385;44.538;18.532;2024-02-21T10:24:34;100375.53;;;11.28;97.60
80927;BME280;70385;44.538;18.532;2024-02-21T10:27:08;100364.34;;;11.49;92.95
80927;BME280;70385;44.538;18.532;2024-02-21T10:29:36;100363.53;;;11.20;78.02
80927;BME280;70385;44.538;18.532;2024-02-21T10:41:42;100336.78;;;11.37;76.52
80927;BME280;70385;44.538;18.532;2024-02-21T10:44:16;100341.72;;;11.20;80.59
80927;BME280;70385;44.538;18.532;2024-02-21T10:46:43;100336.53;;;11.18;76.57
80927;BME280;70385;44.538;18.532;2024-02-21T10:49:29;100331.28;;;11.18;76.86
80927;BME280;70385;44.538;18.532;2024-02-21T10:59:09;100321.03;;;10.53;78.59
80927;BME280;70385;44.538;18.532;2024-02-21T11:01:35;100310.47;;;10.56;78.49
80927;BME280;70385;44.538;18.532;2024-02-21T11:07:56;100300.19;;;11.08;77.97
80927;BME280;70385;44.538;18.532;2024-02-21T11:10:23;100295.03;;;10.77;79.35
80927;BME280;70385;44.538;18.532;2024-02-21T11:13:04;100296.09;;;10.71;78.87
80927;BME280;70385;44.538;18.532;2024-02-21T11:15:31;100286.22;;;10.81;79.04
80927;BME280;70385;44.538;18.532;2024-02-21T11:18:24;100270.25;;;11.15;78.08
80927;BME280;70385;44.538;18.532;2024-02-21T11:20:52;100264.47;;;11.05;72.86
80927;BME280;70385;44.538;18.532;2024-02-21T11:23:27;100264.47;;;11.32;72.79
80927;BME280;70385;44.538;18.532;2024-02-21T11:26:18;100261.66;;;11.38;71.65
80927;BME280;70385;44.538;18.532;2024-02-21T11:29:16;100256.16;;;11.70;68.24
80927;BME280;70385;44.538;18.532;2024-02-21T11:31:51;100249.31;;;11.91;63.80
80927;BME280;70385;44.538;18.532;2024-02-21T11:34:20;100248.16;;;12.00;62.76
80927;BME280;70385;44.538;18.532;2024-02-21T11:36:50;100232.31;;;12.03;62.91
80927;BME280;70385;44.538;18.532;2024-02-21T11:39:21;100238.50;;;12.69;62.20
80927;BME280;70385;44.538;18.532;2024-02-21T11:46:07;100229.03;;;13.08;59.20
80927;BME280;70385;44.538;18.532;2024-02-21T11:48:34;100229.09;;;13.07;59.08
80927;BME280;70385;44.538;18.532;2024-02-21T11:50:59;100224.84;;;12.83;56.53
80927;BME280;70385;44.538;18.532;2024-02-21T11:53:26;100228.09;;;12.22;58.25
80927;BME280;70385;44.538;18.532;2024-02-21T11:55:56;100230.16;;;11.89;59.16
80927;BME280;70385;44.538;18.532;2024-02-21T11:58:22;100225.13;;;11.33;61.82
80927;BME280;70385;44.538;18.532;2024-02-21T12:00:48;100221.28;;;11.18;61.55
80927;BME280;70385;44.538;18.532;2024-02-21T12:03:14;100217.34;;;11.05;63.29
80927;BME280;70385;44.538;18.532;2024-02-21T12:05:41;100213.41;;;10.92;62.00
80927;BME280;70385;44.538;18.532;2024-02-21T12:08:15;100206.88;;;11.05;61.47
80927;BME280;70385;44.538;18.532;2024-02-21T12:10:46;100208.56;;;11.58;59.19
80927;BME280;70385;44.538;18.532;2024-02-21T12:13:22;100204.19;;;11.83;59.50
80927;BME280;70385;44.538;18.532;2024-02-21T12:15:48;100190.84;;;11.64;59.60
80927;BME280;70385;44.538;18.532;2024-02-21T12:18:17;100181.38;;;11.85;56.73
80927;BME280;70385;44.538;18.532;2024-02-21T12:20:43;100183.25;;;12.05;57.15
80927;BME280;70385;44.538;18.532;2024-02-21T12:23:11;100181.38;;;11.60;57.13
80927;BME280;70385;44.538;18.532;2024-02-21T12:25:59;100180.63;;;11.32;59.34
80927;BME280;70385;44.538;18.532;2024-02-21T12:28:30;100181.19;;;11.41;60.23
80927;BME280;70385;44.538;18.532;2024-02-21T12:30:56;100171.75;;;11.61;60.87
80927;BME280;70385;44.538;18.532;2024-02-21T12:33:22;100165.66;;;11.60;61.13
80927;BME280;70385;44.538;18.532;2024-02-21T12:35:51;100159.84;;;11.75;62.00
80927;BME280;70385;44.538;18.532;2024-02-21T12:38:17;100154.56;;;11.52;62.00
80927;BME280;70385;44.538;18.532;2024-02-21T12:40:44;100158.81;;;11.81;61.11
80927;BME280;70385;44.538;18.532;2024-02-21T12:43:10;100147.38;;;11.59;60.57
80927;BME280;70385;44.538;18.532;2024-02-21T12:45:36;100152.94;;;11.73;61.06
80927;BME280;70385;44.538;18.532;2024-02-21T12:48:02;100154.66;;;11.74;62.49
80927;BME280;70385;44.538;18.532;2024-02-21T12:50:30;100149.00;;;11.86;63.81
80927;BME280;70385;44.538;18.532;2024-02-21T12:52:57;100144.47;;;12.79;61.34
80927;BME280;70385;44.538;18.532;2024-02-21T12:55:26;100143.25;;;13.07;60.31
80927;BME280;70385;44.538;18.532;2024-02-21T12:58:02;100138.22;;;13.23;56.54
80927;BME280;70385;44.538;18.532;2024-02-21T13:00:28;100138.88;;;13.28;58.56
80927;BME280;70385;44.538;18.532;2024-02-21T13:02:54;100131.47;;;13.96;56.64
80927;BME280;70385;44.538;18.532;2024-02-21T13:05:25;100119.53;;;14.25;54.56
80927;BME280;70385;44.538;18.532;2024-02-21T13:07:50;100123.06;;;14.43;52.00
80927;BME280;70385;44.538;18.532;2024-02-21T13:10:16;100121.06;;;13.93;52.92
80927;BME280;70385;44.538;18.532;2024-02-21T13:12:44;100112.09;;;14.16;53.63
80927;BME280;70385;44.538;18.532;2024-02-21T13:15:09;100118.06;;;14.19;52.81
80927;BME280;70385;44.538;18.532;2024-02-21T13:17:41;100109.28;;;14.38;53.14
80927;BME280;70385;44.538;18.532;2024-02-21T13:20:08;100105.31;;;14.65;52.07
80927;BME280;70385;44.538;18.532;2024-02-21T13:22:34;100101.78;;;14.83;51.72
80927;BME280;70385;44.538;18.532;2024-02-21T13:25:00;100108.75;;;15.02;52.29
80927;BME280;70385;44.538;18.532;2024-02-21T13:27:28;100105.41;;;15.15;50.09
80927;BME280;70385;44.538;18.532;2024-02-21T13:29:57;100097.16;;;14.88;48.69
80927;BME280;70385;44.538;18.532;2024-02-21T13:32:24;100089.16;;;14.37;50.57
80927;BME280;70385;44.538;18.532;2024-02-21T13:34:50;100095.19;;;14.39;50.84
80927;BME280;70385;44.538;18.532;2024-02-21T13:37:18;100086.03;;;15.49;46.15
80927;BME280;70385;44.538;18.532;2024-02-21T13:39:43;100089.59;;;14.46;48.50
80927;BME280;70385;44.538;18.532;2024-02-21T13:42:10;100080.78;;;14.65;49.26
80927;BME280;70385;44.538;18.532;2024-02-21T13:44:38;100087.13;;;14.95;47.86
80927;BME280;70385;44.538;18.532;2024-02-21T13:47:06;100069.22;;;15.02;47.77
80927;BME280;70385;44.538;18.532;2024-02-21T13:49:33;100066.28;;;15.08;47.43
80927;BME280;70385;44.538;18.532;2024-02-21T13:52:00;100074.03;;;15.11;46.77
80927;BME280;70385;44.538;18.532;2024-02-21T13:54:26;100074.34;;;15.38;46.18
80927;BME280;70385;44.538;18.532;2024-02-21T13:56:55;100056.09;;;15.17;46.32
80927;BME280;70385;44.538;18.532;2024-02-21T13:59:24;100061.38;;;15.51;45.48
80927;BME280;70385;44.538;18.532;2024-02-21T14:01:52;100071.09;;;14.82;43.35
80927;BME280;70385;44.538;18.532;2024-02-21T14:04:25;100063.44;;;14.06;47.19
80927;BME280;70385;44.538;18.532;2024-02-21T14:06:52;100060.19;;;14.01;45.88
80927;BME280;70385;44.538;18.532;2024-02-21T14:09:21;100074.56;;;13.75;47.97
80927;BME280;70385;44.538;18.532;2024-02-21T14:11:47;100058.34;;;13.65;47.45
80927;BME280;70385;44.538;18.532;2024-02-21T14:14:13;100059.66;;;13.75;45.98
80927;BME280;70385;44.538;18.532;2024-02-21T14:16:41;100052.09;;;13.67;46.68
80927;BME280;70385;44.538;18.532;2024-02-21T14:19:06;100042.56;;;13.46;47.64
80927;BME280;70385;44.538;18.532;2024-02-21T14:21:34;100067.13;;;13.06;48.32
80927;BME280;70385;44.538;18.532;2024-02-21T14:24:07;100053.63;;;12.53;51.42
80927;BME280;70385;44.538;18.532;2024-02-21T14:26:34;100053.91;;;12.46;53.20
80927;BME280;70385;44.538;18.532;2024-02-21T14:29:01;100053.69;;;12.09;54.07
80927;BME280;70385;44.538;18.532;2024-02-21T14:31:31;100040.81;;;12.25;53.46
80927;BME280;70385;44.538;18.532;2024-02-21T14:33:58;100050.03;;;12.13;55.27
80927;BME280;70385;44.538;18.532;2024-02-21T14:36:29;100043.13;;;11.65;54.76
80927;BME280;70385;44.538;18.532;2024-02-21T14:38:55;100038.13;;;11.59;55.42
80927;BME280;70385;44.538;18.532;2024-02-21T14:41:21;100041.31;;;11.67;54.77
80927;BME280;70385;44.538;18.532;2024-02-21T14:43:50;100037.91;;;11.65;54.96
80927;BME280;70385;44.538;18.532;2024-02-21T14:46:17;100040.34;;;11.70;55.74
80927;BME280;70385;44.538;18.532;2024-02-21T14:48:46;100031.50;;;11.72;55.42
80927;BME280;70385;44.538;18.532;2024-02-21T14:51:15;100033.50;;;11.66;55.31
80927;BME280;70385;44.538;18.532;2024-02-21T14:53:41;100029.34;;;11.60;55.40
80927;BME280;70385;44.538;18.532;2024-02-21T14:56:13;100037.28;;;11.82;55.62
80927;BME280;70385;44.538;18.532;2024-02-21T14:58:41;100031.84;;;12.08;55.75
80927;BME280;70385;44.538;18.532;2024-02-21T15:01:11;100024.34;;;12.21;54.89
80927;BME280;70385;44.538;18.532;2024-02-21T15:03:38;100014.00;;;11.96;55.45
80927;BME280;70385;44.538;18.532;2024-02-21T15:06:04;100005.63;;;11.87;53.91
80927;BME280;70385;44.538;18.532;2024-02-21T15:11:24;100008.06;;;11.91;54.75
80927;BME280;70385;44.538;18.532;2024-02-21T15:13:51;100012.22;;;11.97;54.04
80927;BME280;70385;44.538;18.532;2024-02-21T15:16:23;100003.91;;;11.85;54.86
80927;BME280;70385;44.538;18.532;2024-02-21T15:21:40;100011.97;;;12.65;52.85
80927;BME280;70385;44.538;18.532;2024-02-21T15:24:06;100008.91;;;12.76;50.15
80927;BME280;70385;44.538;18.532;2024-02-21T15:26:33;100008.09;;;12.94;49.71
80927;BME280;70385;44.538;18.532;2024-02-21T15:29:06;100009.94;;;12.72;50.62
80927;BME280;70385;44.538;18.532;2024-02-21T15:31:32;100000.97;;;13.17;49.76
80927;BME280;70385;44.538;18.532;2024-02-21T15:34:00;99996.19;;;13.06;48.58
80927;BME280;70385;44.538;18.532;2024-02-21T15:36:27;99993.41;;;12.70;49.17
80927;BME280;70385;44.538;18.532;2024-02-21T15:38:55;99996.03;;;13.09;48.48
80927;BME280;70385;44.538;18.532;2024-02-21T15:41:31;99998.47;;;13.53;47.23